sensor_id;sensor_type;location;lat;lon;timestamp;pressure;altitude;pressure_sealevel;temperature;humidity
76598;BME280;65486;53.144;18.134;2023-04-24T00:00:26;100046.45;;;12.63;79.89
76598;BME280;65486;53.144;18.134;2023-04-24T00:03:13;100045.71;;;12.65;79.99
76598;BME280;65486;53.144;18.134;2023-04-24T00:05:40;100047.83;;;12.67;80.12
76598;BME280;65486;53.144;18.134;2023-04-24T00:08:07;100048.44;;;12.70;80.12
76598;BME280;65486;53.144;18.134;2023-04-24T00:10:37;100045.37;;;12.73;80.31
76598;BME280;65486;53.144;18.134;2023-04-24T00:13:04;100042.94;;;12.75;80.29
76598;BME280;65486;53.144;18.134;2023-04-24T00:15:30;100040.21;;;12.75;79.96
76598;BME280;65486;53.144;18.134;2023-04-24T00:17:58;100036.30;;;12.75;80.13
76598;BME280;65486;53.144;18.134;2023-04-24T00:20:25;100030.27;;;12.76;80.26
76598;BME280;65486;53.144;18.134;2023-04-24T00:22:56;100024.76;;;12.78;80.37
76598;BME280;65486;53.144;18.134;2023-04-24T00:25:23;100022.42;;;12.81;80.29
76598;BME280;65486;53.144;18.134;2023-04-24T00:27:49;100023.92;;;12.80;80.32
76598;BME280;65486;53.144;18.134;2023-04-24T00:30:17;100024.77;;;12.79;80.27
76598;BME280;65486;53.144;18.134;2023-04-24T00:32:44;100021.65;;;12.75;80.10
76598;BME280;65486;53.144;18.134;2023-04-24T00:35:10;100020.50;;;12.74;80.14
76598;BME280;65486;53.144;18.134;2023-04-24T00:37:37;100015.89;;;12.72;80.20
76598;BME280;65486;53.144;18.134;2023-04-24T00:40:05;100016.88;;;12.72;80.33
76598;BME280;65486;53.144;18.134;2023-04-24T00:42:32;100013.60;;;12.71;80.18
76598;BME280;65486;53.144;18.134;2023-04-24T00:45:00;100005.96;;;12.67;80.16
76598;BME280;65486;53.144;18.134;2023-04-24T00:47:28;100002.14;;;12.66;80.37
76598;BME280;65486;53.144;18.134;2023-04-24T00:49:55;100001.41;;;12.65;80.55
76598;BME280;65486;53.144;18.134;2023-04-24T00:52:22;100000.89;;;12.64;80.55
76598;BME280;65486;53.144;18.134;2023-04-24T00:54:51;99999.14;;;12.60;80.38
76598;BME280;65486;53.144;18.134;2023-04-24T00:57:18;99998.19;;;12.57;80.13
76598;BME280;65486;53.144;18.134;2023-04-24T00:59:47;100000.34;;;12.53;80.42
76598;BME280;65486;53.144;18.134;2023-04-24T01:02:14;100003.14;;;12.51;80.65
76598;BME280;65486;53.144;18.134;2023-04-24T01:04:42;100013.41;;;12.50;80.78
76598;BME280;65486;53.144;18.134;2023-04-24T01:07:09;100006.30;;;12.51;80.70
76598;BME280;65486;53.144;18.134;2023-04-24T01:09:40;100004.73;;;12.51;80.96
76598;BME280;65486;53.144;18.134;2023-04-24T01:12:08;100000.48;;;12.51;80.76
76598;BME280;65486;53.144;18.134;2023-04-24T01:14:37;99996.55;;;12.51;81.01
76598;BME280;65486;53.144;18.134;2023-04-24T01:17:05;99996.82;;;12.50;81.08
76598;BME280;65486;53.144;18.134;2023-04-24T01:19:32;99989.34;;;12.50;80.94
76598;BME280;65486;53.144;18.134;2023-04-24T01:22:02;99997.67;;;12.48;81.03
76598;BME280;65486;53.144;18.134;2023-04-24T01:24:29;99990.84;;;12.47;80.80
76598;BME280;65486;53.144;18.134;2023-04-24T01:26:56;99986.34;;;12.45;80.72
76598;BME280;65486;53.144;18.134;2023-04-24T01:29:23;99986.60;;;12.44;80.92
76598;BME280;65486;53.144;18.134;2023-04-24T01:31:51;99980.14;;;12.44;80.89
76598;BME280;65486;53.144;18.134;2023-04-24T01:34:18;99977.50;;;12.42;80.97
76598;BME280;65486;53.144;18.134;2023-04-24T01:36:46;99978.75;;;12.40;81.10
76598;BME280;65486;53.144;18.134;2023-04-24T01:39:13;99976.14;;;12.39;81.31
76598;BME280;65486;53.144;18.134;2023-04-24T01:41:40;99979.72;;;12.38;81.36
76598;BME280;65486;53.144;18.134;2023-04-24T01:44:08;99979.54;;;12.37;81.40
76598;BME280;65486;53.144;18.134;2023-04-24T01:46:36;99976.16;;;12.37;81.51
76598;BME280;65486;53.144;18.134;2023-04-24T01:49:04;99979.91;;;12.36;81.49
76598;BME280;65486;53.144;18.134;2023-04-24T01:51:31;99978.36;;;12.36;81.33
76598;BME280;65486;53.144;18.134;2023-04-24T01:53:58;99978.63;;;12.35;81.50
76598;BME280;65486;53.144;18.134;2023-04-24T01:56:25;99974.81;;;12.35;81.61
76598;BME280;65486;53.144;18.134;2023-04-24T01:58:53;99977.34;;;12.34;81.57
76598;BME280;65486;53.144;18.134;2023-04-24T02:01:23;99972.01;;;12.33;81.69
76598;BME280;65486;53.144;18.134;2023-04-24T02:03:51;99974.98;;;12.33;81.52
76598;BME280;65486;53.144;18.134;2023-04-24T02:06:18;99970.11;;;12.32;81.80
76598;BME280;65486;53.144;18.134;2023-04-24T02:08:47;99968.95;;;12.32;81.87
76598;BME280;65486;53.144;18.134;2023-04-24T02:11:14;99970.85;;;12.33;82.08
76598;BME280;65486;53.144;18.134;2023-04-24T02:13:41;99968.95;;;12.32;82.04
76598;BME280;65486;53.144;18.134;2023-04-24T02:16:10;99965.73;;;12.32;81.95
76598;BME280;65486;53.144;18.134;2023-04-24T02:18:37;99948.27;;;12.19;81.86
76598;BME280;65486;53.144;18.134;2023-04-24T02:21:05;99960.32;;;12.28;81.74
76598;BME280;65486;53.144;18.134;2023-04-24T02:23:32;99964.84;;;12.26;82.08
76598;BME280;65486;53.144;18.134;2023-04-24T02:25:59;99961.34;;;12.25;81.92
76598;BME280;65486;53.144;18.134;2023-04-24T02:28:26;99954.33;;;12.23;81.64
76598;BME280;65486;53.144;18.134;2023-04-24T02:30:56;99953.92;;;12.22;81.92
76598;BME280;65486;53.144;18.134;2023-04-24T02:33:25;99949.79;;;12.23;81.95
76598;BME280;65486;53.144;18.134;2023-04-24T02:35:53;99942.15;;;12.22;81.92
76598;BME280;65486;53.144;18.134;2023-04-24T02:38:21;99944.34;;;12.21;81.87
76598;BME280;65486;53.144;18.134;2023-04-24T02:40:49;99943.39;;;12.19;81.85
76598;BME280;65486;53.144;18.134;2023-04-24T02:43:17;99942.48;;;12.18;82.01
76598;BME280;65486;53.144;18.134;2023-04-24T02:45:46;99942.71;;;12.19;82.12
76598;BME280;65486;53.144;18.134;2023-04-24T02:48:22;99940.59;;;12.22;82.46
76598;BME280;65486;53.144;18.134;2023-04-24T02:50:49;99940.23;;;12.24;82.25
76598;BME280;65486;53.144;18.134;2023-04-24T02:53:17;99933.15;;;12.25;82.23
76598;BME280;65486;53.144;18.134;2023-04-24T02:55:44;99933.54;;;12.26;82.06
76598;BME280;65486;53.144;18.134;2023-04-24T02:58:12;99933.77;;;12.27;82.30
76598;BME280;65486;53.144;18.134;2023-04-24T03:00:39;99929.31;;;12.28;82.29
76598;BME280;65486;53.144;18.134;2023-04-24T03:03:07;99927.92;;;12.28;82.26
76598;BME280;65486;53.144;18.134;2023-04-24T03:05:34;99933.64;;;12.27;82.18
76598;BME280;65486;53.144;18.134;2023-04-24T03:08:01;99930.66;;;12.26;82.32
76598;BME280;65486;53.144;18.134;2023-04-24T03:10:28;99931.54;;;12.25;82.17
76598;BME280;65486;53.144;18.134;2023-04-24T03:12:55;99930.77;;;12.26;82.38
76598;BME280;65486;53.144;18.134;2023-04-24T03:15:22;99932.88;;;12.27;82.26
76598;BME280;65486;53.144;18.134;2023-04-24T03:17:49;99934.98;;;12.30;82.15
76598;BME280;65486;53.144;18.134;2023-04-24T03:20:16;99939.25;;;12.31;82.12
76598;BME280;65486;53.144;18.134;2023-04-24T03:22:43;99937.41;;;12.34;82.06
76598;BME280;65486;53.144;18.134;2023-04-24T03:25:10;99936.60;;;12.36;82.15
76598;BME280;65486;53.144;18.134;2023-04-24T03:27:37;99932.91;;;12.37;82.41
76598;BME280;65486;53.144;18.134;2023-04-24T03:30:11;99934.86;;;12.38;82.25
76598;BME280;65486;53.144;18.134;2023-04-24T03:32:46;99931.65;;;12.37;82.18
76598;BME280;65486;53.144;18.134;2023-04-24T03:35:15;99933.30;;;12.37;82.30
76598;BME280;65486;53.144;18.134;2023-04-24T03:37:42;99939.55;;;12.37;82.15
76598;BME280;65486;53.144;18.134;2023-04-24T03:40:27;99943.36;;;12.37;82.16
76598;BME280;65486;53.144;18.134;2023-04-24T03:42:56;99945.54;;;12.38;82.02
76598;BME280;65486;53.144;18.134;2023-04-24T03:45:23;99953.16;;;12.41;82.21
76598;BME280;65486;53.144;18.134;2023-04-24T03:47:54;99953.71;;;12.44;82.44
76598;BME280;65486;53.144;18.134;2023-04-24T03:50:21;99955.52;;;12.48;82.22
76598;BME280;65486;53.144;18.134;2023-04-24T03:52:49;99946.73;;;12.49;82.21
76598;BME280;65486;53.144;18.134;2023-04-24T03:55:24;99945.33;;;12.50;82.34
76598;BME280;65486;53.144;18.134;2023-04-24T03:57:51;99943.95;;;12.52;82.46
76598;BME280;65486;53.144;18.134;2023-04-24T04:00:22;99943.79;;;12.52;82.19
76598;BME280;65486;53.144;18.134;2023-04-24T04:02:53;99942.52;;;12.51;82.36
76598;BME280;65486;53.144;18.134;2023-04-24T04:05:20;99942.93;;;12.49;82.50
76598;BME280;65486;53.144;18.134;2023-04-24T04:07:46;99941.31;;;12.48;82.43
76598;BME280;65486;53.144;18.134;2023-04-24T04:10:14;99932.55;;;12.48;82.46
76598;BME280;65486;53.144;18.134;2023-04-24T04:12:41;99928.55;;;12.45;82.34
76598;BME280;65486;53.144;18.134;2023-04-24T04:15:10;99923.17;;;12.44;82.83
76598;BME280;65486;53.144;18.134;2023-04-24T04:17:40;99923.44;;;12.43;82.82
76598;BME280;65486;53.144;18.134;2023-04-24T04:20:07;99920.77;;;12.43;82.69
76598;BME280;65486;53.144;18.134;2023-04-24T04:22:36;99917.21;;;12.42;82.67
76598;BME280;65486;53.144;18.134;2023-04-24T04:25:06;99920.34;;;12.44;82.85
76598;BME280;65486;53.144;18.134;2023-04-24T04:27:35;99917.17;;;12.42;82.71
76598;BME280;65486;53.144;18.134;2023-04-24T04:30:08;99920.15;;;12.42;82.86
76598;BME280;65486;53.144;18.134;2023-04-24T04:32:46;99921.88;;;12.43;82.81
76598;BME280;65486;53.144;18.134;2023-04-24T04:35:13;99919.52;;;12.44;82.62
76598;BME280;65486;53.144;18.134;2023-04-24T04:37:41;99920.48;;;12.45;82.85
76598;BME280;65486;53.144;18.134;2023-04-24T04:40:17;99919.29;;;12.47;82.82
76598;BME280;65486;53.144;18.134;2023-04-24T04:42:58;99920.88;;;12.50;82.74
76598;BME280;65486;53.144;18.134;2023-04-24T04:45:26;99917.85;;;12.50;82.37
76598;BME280;65486;53.144;18.134;2023-04-24T04:48:22;99918.52;;;12.51;82.59
76598;BME280;65486;53.144;18.134;2023-04-24T04:50:49;99920.34;;;12.52;82.63
76598;BME280;65486;53.144;18.134;2023-04-24T04:53:16;99920.84;;;12.51;82.80
76598;BME280;65486;53.144;18.134;2023-04-24T04:55:44;99917.63;;;12.51;82.71
76598;BME280;65486;53.144;18.134;2023-04-24T04:58:14;99917.15;;;12.53;82.56
76598;BME280;65486;53.144;18.134;2023-04-24T05:00:41;99915.86;;;12.59;82.58
76598;BME280;65486;53.144;18.134;2023-04-24T05:03:18;99911.99;;;12.69;82.53
76598;BME280;65486;53.144;18.134;2023-04-24T05:05:48;99907.02;;;12.82;82.31
76598;BME280;65486;53.144;18.134;2023-04-24T05:08:17;99902.42;;;12.98;81.98
76598;BME280;65486;53.144;18.134;2023-04-24T05:10:45;99896.73;;;13.16;81.57
76598;BME280;65486;53.144;18.134;2023-04-24T05:13:12;99896.18;;;13.38;81.36
76598;BME280;65486;53.144;18.134;2023-04-24T05:15:42;99897.92;;;13.53;81.15
76598;BME280;65486;53.144;18.134;2023-04-24T05:18:14;99895.65;;;13.66;80.86
76598;BME280;65486;53.144;18.134;2023-04-24T05:20:43;99896.02;;;13.68;80.86
76598;BME280;65486;53.144;18.134;2023-04-24T05:23:30;99891.52;;;13.69;80.35
76598;BME280;65486;53.144;18.134;2023-04-24T05:25:58;99889.98;;;13.71;80.15
76598;BME280;65486;53.144;18.134;2023-04-24T05:28:25;99894.52;;;13.75;80.15
76598;BME280;65486;53.144;18.134;2023-04-24T05:31:02;99889.11;;;13.78;79.99
76598;BME280;65486;53.144;18.134;2023-04-24T05:33:29;99891.11;;;13.81;79.90
76598;BME280;65486;53.144;18.134;2023-04-24T05:35:58;99890.36;;;13.83;79.93
76598;BME280;65486;53.144;18.134;2023-04-24T05:38:25;99892.16;;;13.84;79.74
76598;BME280;65486;53.144;18.134;2023-04-24T05:40:56;99887.88;;;13.84;79.69
76598;BME280;65486;53.144;18.134;2023-04-24T05:43:28;99888.44;;;13.86;79.25
76598;BME280;65486;53.144;18.134;2023-04-24T05:45:55;99884.61;;;13.92;79.31
76598;BME280;65486;53.144;18.134;2023-04-24T05:48:22;99885.45;;;14.01;79.14
76598;BME280;65486;53.144;18.134;2023-04-24T05:50:50;99886.47;;;14.14;78.69
76598;BME280;65486;53.144;18.134;2023-04-24T05:53:19;99886.88;;;14.32;78.56
76598;BME280;65486;53.144;18.134;2023-04-24T05:55:47;99881.42;;;14.48;78.26
76598;BME280;65486;53.144;18.134;2023-04-24T05:58:14;99884.36;;;14.74;77.55
76598;BME280;65486;53.144;18.134;2023-04-24T06:00:43;99885.36;;;15.39;76.87
76598;BME280;65486;53.144;18.134;2023-04-24T06:03:11;99882.40;;;15.93;75.42
76598;BME280;65486;53.144;18.134;2023-04-24T06:05:38;99879.41;;;16.16;74.52
76598;BME280;65486;53.144;18.134;2023-04-24T06:08:07;99881.60;;;16.35;74.25
76598;BME280;65486;53.144;18.134;2023-04-24T06:10:37;99883.79;;;16.29;72.78
76598;BME280;65486;53.144;18.134;2023-04-24T06:13:04;99885.27;;;16.14;73.09
76598;BME280;65486;53.144;18.134;2023-04-24T06:15:33;99879.61;;;15.97;71.89
76598;BME280;65486;53.144;18.134;2023-04-24T06:18:04;99877.64;;;15.79;73.22
76598;BME280;65486;53.144;18.134;2023-04-24T06:20:31;99879.52;;;15.71;73.49
76598;BME280;65486;53.144;18.134;2023-04-24T06:22:59;99876.36;;;15.67;73.35
76598;BME280;65486;53.144;18.134;2023-04-24T06:25:26;99874.47;;;15.63;73.95
76598;BME280;65486;53.144;18.134;2023-04-24T06:27:54;99876.46;;;15.57;73.42
76598;BME280;65486;53.144;18.134;2023-04-24T06:30:21;99870.35;;;15.54;73.40
76598;BME280;65486;53.144;18.134;2023-04-24T06:32:48;99865.02;;;15.59;73.80
76598;BME280;65486;53.144;18.134;2023-04-24T06:35:18;99862.84;;;15.75;73.79
76598;BME280;65486;53.144;18.134;2023-04-24T06:37:46;99864.89;;;15.90;73.00
76598;BME280;65486;53.144;18.134;2023-04-24T06:40:15;99858.02;;;16.09;71.79
76598;BME280;65486;53.144;18.134;2023-04-24T06:42:45;99855.66;;;16.36;71.45
76598;BME280;65486;53.144;18.134;2023-04-24T06:45:13;99855.19;;;16.88;70.29
76598;BME280;65486;53.144;18.134;2023-04-24T06:47:42;99850.99;;;17.03;70.38
76598;BME280;65486;53.144;18.134;2023-04-24T06:50:09;99854.22;;;17.02;69.49
76598;BME280;65486;53.144;18.134;2023-04-24T06:52:36;99855.45;;;16.94;70.05
76598;BME280;65486;53.144;18.134;2023-04-24T06:55:03;99858.88;;;16.86;69.80
76598;BME280;65486;53.144;18.134;2023-04-24T06:57:33;99857.00;;;16.72;69.94
76598;BME280;65486;53.144;18.134;2023-04-24T07:00:00;99855.48;;;16.59;70.05
76598;BME280;65486;53.144;18.134;2023-04-24T07:02:29;99855.46;;;16.44;69.63
76598;BME280;65486;53.144;18.134;2023-04-24T07:04:56;99854.29;;;16.32;70.06
76598;BME280;65486;53.144;18.134;2023-04-24T07:07:27;99852.58;;;16.25;70.24
76598;BME280;65486;53.144;18.134;2023-04-24T07:09:55;99852.35;;;16.29;70.30
76598;BME280;65486;53.144;18.134;2023-04-24T07:12:24;99850.70;;;16.41;70.10
76598;BME280;65486;53.144;18.134;2023-04-24T07:14:52;99850.14;;;16.57;69.99
76598;BME280;65486;53.144;18.134;2023-04-24T07:17:19;99850.10;;;16.72;69.04
76598;BME280;65486;53.144;18.134;2023-04-24T07:19:46;99845.58;;;17.20;68.64
76598;BME280;65486;53.144;18.134;2023-04-24T07:22:13;99839.08;;;17.95;66.86
76598;BME280;65486;53.144;18.134;2023-04-24T07:24:44;99839.13;;;18.18;65.71
76598;BME280;65486;53.144;18.134;2023-04-24T07:27:14;99836.30;;;18.29;63.69
76598;BME280;65486;53.144;18.134;2023-04-24T07:29:41;99840.29;;;18.22;60.98
76598;BME280;65486;53.144;18.134;2023-04-24T07:32:12;99835.69;;;18.10;62.70
76598;BME280;65486;53.144;18.134;2023-04-24T07:34:41;99833.88;;;18.07;62.74
76598;BME280;65486;53.144;18.134;2023-04-24T07:37:10;99834.06;;;18.00;62.49
76598;BME280;65486;53.144;18.134;2023-04-24T07:39:37;99834.89;;;17.90;62.61
76598;BME280;65486;53.144;18.134;2023-04-24T07:42:04;99840.55;;;17.81;61.45
76598;BME280;65486;53.144;18.134;2023-04-24T07:44:33;99841.21;;;17.64;61.66
76598;BME280;65486;53.144;18.134;2023-04-24T07:47:00;99844.15;;;17.56;61.36
76598;BME280;65486;53.144;18.134;2023-04-24T07:49:28;99843.23;;;17.53;61.38
76598;BME280;65486;53.144;18.134;2023-04-24T07:51:57;99837.16;;;17.51;61.93
76598;BME280;65486;53.144;18.134;2023-04-24T07:54:25;99832.02;;;17.61;60.95
76598;BME280;65486;53.144;18.134;2023-04-24T07:56:54;99828.48;;;17.66;61.49
76598;BME280;65486;53.144;18.134;2023-04-24T07:59:22;99823.23;;;17.71;61.12
76598;BME280;65486;53.144;18.134;2023-04-24T08:01:49;99826.77;;;17.76;60.75
76598;BME280;65486;53.144;18.134;2023-04-24T08:04:16;99827.70;;;17.83;59.49
76598;BME280;65486;53.144;18.134;2023-04-24T08:06:44;99831.34;;;17.93;58.84
76598;BME280;65486;53.144;18.134;2023-04-24T08:09:11;99826.77;;;18.30;58.58
76598;BME280;65486;53.144;18.134;2023-04-24T08:11:39;99827.10;;;18.39;58.54
76598;BME280;65486;53.144;18.134;2023-04-24T08:14:08;99830.59;;;18.50;56.86
76598;BME280;65486;53.144;18.134;2023-04-24T08:16:36;99833.30;;;18.48;57.13
76598;BME280;65486;53.144;18.134;2023-04-24T08:19:06;99831.60;;;18.38;57.76
76598;BME280;65486;53.144;18.134;2023-04-24T08:21:39;99834.18;;;18.36;57.91
76598;BME280;65486;53.144;18.134;2023-04-24T08:24:15;99836.52;;;18.26;56.32
76598;BME280;65486;53.144;18.134;2023-04-24T08:26:43;99834.17;;;18.16;56.89
76598;BME280;65486;53.144;18.134;2023-04-24T08:29:10;99835.94;;;18.18;57.47
76598;BME280;65486;53.144;18.134;2023-04-24T08:31:38;99833.52;;;18.29;56.47
76598;BME280;65486;53.144;18.134;2023-04-24T08:34:06;99832.95;;;18.40;54.97
76598;BME280;65486;53.144;18.134;2023-04-24T08:36:33;99827.46;;;18.45;55.62
76598;BME280;65486;53.144;18.134;2023-04-24T08:39:01;99822.52;;;18.59;54.42
76598;BME280;65486;53.144;18.134;2023-04-24T08:41:30;99813.71;;;18.67;54.69
76598;BME280;65486;53.144;18.134;2023-04-24T08:43:58;99824.81;;;18.85;54.64
76598;BME280;65486;53.144;18.134;2023-04-24T08:46:26;99823.11;;;19.13;53.69
76598;BME280;65486;53.144;18.134;2023-04-24T08:48:53;99820.84;;;19.23;53.00
76598;BME280;65486;53.144;18.134;2023-04-24T08:51:21;99821.93;;;19.35;53.69
76598;BME280;65486;53.144;18.134;2023-04-24T08:53:51;99820.48;;;19.44;52.09
76598;BME280;65486;53.144;18.134;2023-04-24T08:56:21;99819.76;;;19.42;52.56
76598;BME280;65486;53.144;18.134;2023-04-24T08:58:53;99822.02;;;19.29;51.88
76598;BME280;65486;53.144;18.134;2023-04-24T09:01:20;99828.79;;;19.07;52.75
76598;BME280;65486;53.144;18.134;2023-04-24T09:03:49;99829.21;;;18.77;52.90
76598;BME280;65486;53.144;18.134;2023-04-24T09:06:19;99831.25;;;18.58;53.56
76598;BME280;65486;53.144;18.134;2023-04-24T09:08:51;99833.95;;;18.45;52.93
76598;BME280;65486;53.144;18.134;2023-04-24T09:11:22;99837.70;;;18.30;53.19
76598;BME280;65486;53.144;18.134;2023-04-24T09:13:51;99832.90;;;18.16;53.67
76598;BME280;65486;53.144;18.134;2023-04-24T09:16:19;99835.75;;;18.04;54.06
76598;BME280;65486;53.144;18.134;2023-04-24T09:18:46;99840.80;;;17.84;54.32
76598;BME280;65486;53.144;18.134;2023-04-24T09:21:13;99843.86;;;17.67;55.07
76598;BME280;65486;53.144;18.134;2023-04-24T09:23:41;99843.58;;;17.51;55.52
76598;BME280;65486;53.144;18.134;2023-04-24T09:26:09;99840.98;;;17.39;56.07
76598;BME280;65486;53.144;18.134;2023-04-24T09:28:39;99840.37;;;17.32;56.56
76598;BME280;65486;53.144;18.134;2023-04-24T09:31:15;99842.59;;;17.26;56.70
76598;BME280;65486;53.144;18.134;2023-04-24T09:33:55;99840.04;;;17.17;57.19
76598;BME280;65486;53.144;18.134;2023-04-24T09:36:34;99839.54;;;17.07;57.44
76598;BME280;65486;53.144;18.134;2023-04-24T09:39:08;99830.50;;;17.02;57.71
76598;BME280;65486;53.144;18.134;2023-04-24T09:42:05;99827.27;;;17.00;57.94
76598;BME280;65486;53.144;18.134;2023-04-24T09:44:34;99822.54;;;17.01;58.15
76598;BME280;65486;53.144;18.134;2023-04-24T09:47:02;99819.93;;;17.06;58.15
76598;BME280;65486;53.144;18.134;2023-04-24T09:49:35;99810.65;;;17.19;58.07
76598;BME280;65486;53.144;18.134;2023-04-24T09:52:08;99810.70;;;17.35;57.77
76598;BME280;65486;53.144;18.134;2023-04-24T09:54:39;99801.83;;;17.57;57.24
76598;BME280;65486;53.144;18.134;2023-04-24T09:57:09;99801.61;;;17.83;56.19
76598;BME280;65486;53.144;18.134;2023-04-24T09:59:42;99793.56;;;18.15;56.06
76598;BME280;65486;53.144;18.134;2023-04-24T10:02:20;99789.04;;;18.61;55.34
76598;BME280;65486;53.144;18.134;2023-04-24T10:04:57;99790.43;;;19.57;53.25
76598;BME280;65486;53.144;18.134;2023-04-24T10:07:28;99791.58;;;20.89;49.38
76598;BME280;65486;53.144;18.134;2023-04-24T10:09:56;99786.67;;;21.15;49.12
76598;BME280;65486;53.144;18.134;2023-04-24T10:12:24;99782.80;;;20.98;48.63
76598;BME280;65486;53.144;18.134;2023-04-24T10:14:52;99780.25;;;20.77;49.58
76598;BME280;65486;53.144;18.134;2023-04-24T10:17:20;99776.27;;;20.60;49.97
76598;BME280;65486;53.144;18.134;2023-04-24T10:19:48;99768.66;;;20.44;50.33
76598;BME280;65486;53.144;18.134;2023-04-24T10:22:15;99770.77;;;20.25;50.46
76598;BME280;65486;53.144;18.134;2023-04-24T10:24:45;99773.02;;;20.01;50.44
76598;BME280;65486;53.144;18.134;2023-04-24T10:27:14;99771.83;;;19.84;50.33
76598;BME280;65486;53.144;18.134;2023-04-24T10:29:43;99773.16;;;19.73;50.67
76598;BME280;65486;53.144;18.134;2023-04-24T10:32:11;99775.48;;;19.72;50.87
76598;BME280;65486;53.144;18.134;2023-04-24T10:34:38;99773.67;;;19.79;50.01
76598;BME280;65486;53.144;18.134;2023-04-24T10:37:06;99773.41;;;19.79;50.25
76598;BME280;65486;53.144;18.134;2023-04-24T10:39:33;99772.54;;;19.88;50.60
76598;BME280;65486;53.144;18.134;2023-04-24T10:42:16;99775.44;;;20.01;49.46
76598;BME280;65486;53.144;18.134;2023-04-24T10:44:43;99776.34;;;20.12;49.18
76598;BME280;65486;53.144;18.134;2023-04-24T10:47:13;99777.30;;;20.17;48.04
76598;BME280;65486;53.144;18.134;2023-04-24T10:49:41;99780.30;;;20.23;48.78
76598;BME280;65486;53.144;18.134;2023-04-24T10:52:08;99784.53;;;20.43;48.85
76598;BME280;65486;53.144;18.134;2023-04-24T10:54:42;99782.46;;;20.64;48.70
76598;BME280;65486;53.144;18.134;2023-04-24T10:57:28;99783.58;;;20.74;46.77
76598;BME280;65486;53.144;18.134;2023-04-24T11:00:18;99782.64;;;20.71;47.83
76598;BME280;65486;53.144;18.134;2023-04-24T11:02:47;99780.14;;;20.82;47.88
76598;BME280;65486;53.144;18.134;2023-04-24T11:05:49;99785.13;;;21.00;47.99
76598;BME280;65486;53.144;18.134;2023-04-24T11:08:44;99790.95;;;21.17;47.48
76598;BME280;65486;53.144;18.134;2023-04-24T11:11:15;99790.45;;;21.12;47.08
76598;BME280;65486;53.144;18.134;2023-04-24T11:21:47;99792.61;;;20.19;48.96
76598;BME280;65486;53.144;18.134;2023-04-24T11:24:27;99796.75;;;19.99;49.13
76598;BME280;65486;53.144;18.134;2023-04-24T11:26:56;99802.11;;;19.75;49.60
76598;BME280;65486;53.144;18.134;2023-04-24T11:29:41;99807.39;;;19.76;49.63
76598;BME280;65486;53.144;18.134;2023-04-24T11:35:03;99804.55;;;19.85;49.42
76598;BME280;65486;53.144;18.134;2023-04-24T11:37:41;99798.73;;;19.97;49.07
76598;BME280;65486;53.144;18.134;2023-04-24T11:40:16;99803.50;;;20.16;48.52
76598;BME280;65486;53.144;18.134;2023-04-24T11:42:45;99802.08;;;20.36;47.87
76598;BME280;65486;53.144;18.134;2023-04-24T11:45:15;99796.70;;;20.56;47.71
76598;BME280;65486;53.144;18.134;2023-04-24T11:47:43;99802.55;;;20.70;47.19
76598;BME280;65486;53.144;18.134;2023-04-24T11:50:13;99800.00;;;20.71;47.44
76598;BME280;65486;53.144;18.134;2023-04-24T11:52:48;99797.82;;;20.71;47.20
76598;BME280;65486;53.144;18.134;2023-04-24T11:55:27;99801.55;;;20.59;47.60
76598;BME280;65486;53.144;18.134;2023-04-24T11:57:58;99796.38;;;20.53;47.75
76598;BME280;65486;53.144;18.134;2023-04-24T12:00:29;99797.54;;;20.45;47.67
76598;BME280;65486;53.144;18.134;2023-04-24T12:03:10;99794.61;;;20.43;47.94
76598;BME280;65486;53.144;18.134;2023-04-24T12:05:38;99795.82;;;20.41;48.08
76598;BME280;65486;53.144;18.134;2023-04-24T12:08:06;99797.42;;;20.50;48.35
76598;BME280;65486;53.144;18.134;2023-04-24T12:10:34;99787.45;;;20.66;47.74
76598;BME280;65486;53.144;18.134;2023-04-24T12:13:01;99784.07;;;20.67;47.60
76598;BME280;65486;53.144;18.134;2023-04-24T12:15:28;99781.85;;;20.54;47.77
76598;BME280;65486;53.144;18.134;2023-04-24T12:17:56;99781.71;;;20.38;48.27
76598;BME280;65486;53.144;18.134;2023-04-24T12:20:32;99777.85;;;20.44;48.25
76598;BME280;65486;53.144;18.134;2023-04-24T12:23:00;99776.02;;;20.62;47.85
76598;BME280;65486;53.144;18.134;2023-04-24T12:25:30;99771.07;;;20.72;47.21
76598;BME280;65486;53.144;18.134;2023-04-24T12:28:13;99763.90;;;20.87;47.20
76598;BME280;65486;53.144;18.134;2023-04-24T12:30:47;99766.92;;;21.04;46.98
76598;BME280;65486;53.144;18.134;2023-04-24T12:33:23;99764.27;;;21.22;46.73
76598;BME280;65486;53.144;18.134;2023-04-24T12:35:54;99753.05;;;21.40;45.32
76598;BME280;65486;53.144;18.134;2023-04-24T12:38:25;99750.20;;;21.58;45.31
76598;BME280;65486;53.144;18.134;2023-04-24T12:43:38;99740.34;;;21.77;42.95
76598;BME280;65486;53.144;18.134;2023-04-24T12:46:35;99740.14;;;21.82;41.54
76598;BME280;65486;53.144;18.134;2023-04-24T12:49:03;99739.12;;;21.89;41.81
76598;BME280;65486;53.144;18.134;2023-04-24T12:51:30;99736.88;;;22.03;41.83
76598;BME280;65486;53.144;18.134;2023-04-24T12:53:59;99740.53;;;22.11;39.83
76598;BME280;65486;53.144;18.134;2023-04-24T12:56:27;99733.30;;;22.09;39.38
76598;BME280;65486;53.144;18.134;2023-04-24T12:58:54;99729.71;;;22.15;39.87
76598;BME280;65486;53.144;18.134;2023-04-24T13:01:27;99727.20;;;22.14;39.99
76598;BME280;65486;53.144;18.134;2023-04-24T13:03:55;99728.94;;;22.12;40.44
76598;BME280;65486;53.144;18.134;2023-04-24T13:06:22;99723.80;;;22.12;40.36
76598;BME280;65486;53.144;18.134;2023-04-24T13:08:52;99724.95;;;22.04;40.17
76598;BME280;65486;53.144;18.134;2023-04-24T13:11:21;99722.80;;;21.91;40.57
76598;BME280;65486;53.144;18.134;2023-04-24T13:13:50;99719.27;;;21.74;40.37
76598;BME280;65486;53.144;18.134;2023-04-24T13:16:17;99717.51;;;21.50;40.01